sensor_id;sensor_type;location;lat;lon;timestamp;pressure;altitude;pressure_sealevel;temperature;humidity
50057;BME280;36875;49.468;11.200;2024-03-23T00:52:23;97183.41;;;22.67;37.50
50057;BME280;36875;49.468;11.200;2024-03-23T00:54:48;97180.44;;;22.60;37.80
50057;BME280;36875;49.468;11.200;2024-03-23T00:57:14;97174.19;;;22.59;37.55
50057;BME280;36875;49.468;11.200;2024-03-23T00:59:39;97159.91;;;22.54;37.44
50057;BME280;36875;49.468;11.200;2024-03-23T01:02:05;97153.94;;;22.51;37.55
50057;BME280;36875;49.468;11.200;2024-03-23T01:04:30;97148.84;;;22.50;37.65
50057;BME280;36875;49.468;11.200;2024-03-23T01:06:56;97147.56;;;22.47;37.54
50057;BME280;36875;49.468;11.200;2024-03-23T01:09:23;97149.41;;;22.43;37.68
50057;BME280;36875;49.468;11.200;2024-03-23T01:11:48;97140.72;;;22.41;37.62
50057;BME280;36875;49.468;11.200;2024-03-23T01:14:14;97146.09;;;22.38;37.59
50057;BME280;36875;49.468;11.200;2024-03-23T01:16:39;97136.66;;;22.35;37.50
50057;BME280;36875;49.468;11.200;2024-03-23T01:19:05;97135.47;;;22.36;37.57
50057;BME280;36875;49.468;11.200;2024-03-23T01:21:31;97138.91;;;22.33;37.65
50057;BME280;36875;49.468;11.200;2024-03-23T01:23:57;97131.38;;;22.30;37.86
50057;BME280;36875;49.468;11.200;2024-03-23T01:26:24;97136.06;;;22.29;37.73
50057;BME280;36875;49.468;11.200;2024-03-23T01:28:49;97125.47;;;22.28;37.70
50057;BME280;36875;49.468;11.200;2024-03-23T01:31:15;97122.13;;;22.22;37.82
50057;BME280;36875;49.468;11.200;2024-03-23T01:33:41;97123.59;;;22.20;37.80
50057;BME280;36875;49.468;11.200;2024-03-23T01:36:06;97118.81;;;22.17;37.84
50057;BME280;36875;49.468;11.200;2024-03-23T01:38:32;97123.50;;;22.16;37.78
50057;BME280;36875;49.468;11.200;2024-03-23T01:40:58;97121.09;;;22.14;37.79
50057;BME280;36875;49.468;11.200;2024-03-23T01:43:25;97110.38;;;22.09;37.93
50057;BME280;36875;49.468;11.200;2024-03-23T01:45:50;97107.16;;;22.07;37.78
50057;BME280;36875;49.468;11.200;2024-03-23T01:48:16;97109.81;;;22.04;37.97
50057;BME280;36875;49.468;11.200;2024-03-23T01:50:41;97107.53;;;22.06;37.87
50057;BME280;36875;49.468;11.200;2024-03-23T01:53:07;97101.22;;;22.05;37.67
50057;BME280;36875;49.468;11.200;2024-03-23T01:55:33;97096.81;;;22.01;38.02
50057;BME280;36875;49.468;11.200;2024-03-23T01:57:58;97093.94;;;21.97;38.00
50057;BME280;36875;49.468;11.200;2024-03-23T02:00:26;97085.72;;;21.97;37.92
50057;BME280;36875;49.468;11.200;2024-03-23T02:02:53;97088.03;;;21.95;37.89
50057;BME280;36875;49.468;11.200;2024-03-23T02:05:18;97084.38;;;21.91;37.92
50057;BME280;36875;49.468;11.200;2024-03-23T02:07:44;97077.28;;;21.90;38.06
50057;BME280;36875;49.468;11.200;2024-03-23T02:10:10;97079.13;;;21.86;37.98
50057;BME280;36875;49.468;11.200;2024-03-23T02:12:38;97076.38;;;21.86;37.91
50057;BME280;36875;49.468;11.200;2024-03-23T02:15:04;97067.34;;;21.85;37.86
50057;BME280;36875;49.468;11.200;2024-03-23T02:17:34;97064.53;;;21.82;37.88
50057;BME280;36875;49.468;11.200;2024-03-23T02:19:59;97052.63;;;21.78;37.91
50057;BME280;36875;49.468;11.200;2024-03-23T02:22:25;97028.03;;;21.65;37.61
50057;BME280;36875;49.468;11.200;2024-03-23T02:25:00;97044.31;;;21.74;37.90
50057;BME280;36875;49.468;11.200;2024-03-23T02:27:26;97053.34;;;21.74;37.99
50057;BME280;36875;49.468;11.200;2024-03-23T02:29:51;97043.06;;;21.71;38.10
50057;BME280;36875;49.468;11.200;2024-03-23T02:32:17;97041.47;;;21.70;37.98
50057;BME280;36875;49.468;11.200;2024-03-23T02:34:42;97037.16;;;21.69;37.98
50057;BME280;36875;49.468;11.200;2024-03-23T02:37:10;97033.03;;;21.63;38.08
50057;BME280;36875;49.468;11.200;2024-03-23T02:39:36;97012.63;;;21.61;38.39
50057;BME280;36875;49.468;11.200;2024-03-23T02:42:03;97018.19;;;21.64;38.18
50057;BME280;36875;49.468;11.200;2024-03-23T02:44:28;97007.59;;;21.63;38.02
50057;BME280;36875;49.468;11.200;2024-03-23T02:46:54;97005.91;;;21.58;38.14
50057;BME280;36875;49.468;11.200;2024-03-23T02:49:19;96994.84;;;21.54;38.25
50057;BME280;36875;49.468;11.200;2024-03-23T02:51:46;96994.72;;;21.51;38.17
50057;BME280;36875;49.468;11.200;2024-03-23T02:54:13;96990.25;;;21.46;38.19
50057;BME280;36875;49.468;11.200;2024-03-23T02:56:39;96996.31;;;21.52;38.16
50057;BME280;36875;49.468;11.200;2024-03-23T02:59:06;96995.50;;;21.51;38.24
50057;BME280;36875;49.468;11.200;2024-03-23T03:01:31;96987.19;;;21.48;38.20
50057;BME280;36875;49.468;11.200;2024-03-23T03:03:57;96988.78;;;21.49;38.32
50057;BME280;36875;49.468;11.200;2024-03-23T03:06:23;96977.25;;;21.43;38.27
50057;BME280;36875;49.468;11.200;2024-03-23T03:08:49;96980.31;;;21.42;38.15
50057;BME280;36875;49.468;11.200;2024-03-23T03:11:14;96965.97;;;21.45;38.15
50057;BME280;36875;49.468;11.200;2024-03-23T03:13:39;96965.03;;;21.41;38.21
50057;BME280;36875;49.468;11.200;2024-03-23T03:16:09;96958.31;;;21.38;38.25
50057;BME280;36875;49.468;11.200;2024-03-23T03:18:35;96957.97;;;21.40;38.22
50057;BME280;36875;49.468;11.200;2024-03-23T03:21:00;96946.56;;;21.37;38.18
50057;BME280;36875;49.468;11.200;2024-03-23T03:23:26;96936.75;;;21.36;38.13
50057;BME280;36875;49.468;11.200;2024-03-23T03:25:51;96940.19;;;21.33;38.37
50057;BME280;36875;49.468;11.200;2024-03-23T03:28:17;96941.34;;;21.32;38.21
50057;BME280;36875;49.468;11.200;2024-03-23T03:30:42;96951.84;;;21.30;38.31
50057;BME280;36875;49.468;11.200;2024-03-23T03:33:09;96954.91;;;21.29;38.41
50057;BME280;36875;49.468;11.200;2024-03-23T03:35:34;96933.34;;;21.27;38.30
50057;BME280;36875;49.468;11.200;2024-03-23T03:38:00;96923.53;;;21.26;38.35
50057;BME280;36875;49.468;11.200;2024-03-23T03:40:25;96915.69;;;21.25;38.36
50057;BME280;36875;49.468;11.200;2024-03-23T03:42:51;96911.69;;;21.22;38.19
50057;BME280;36875;49.468;11.200;2024-03-23T03:45:16;96912.47;;;21.23;38.44
50057;BME280;36875;49.468;11.200;2024-03-23T03:47:42;96903.47;;;21.10;38.38
50057;BME280;36875;49.468;11.200;2024-03-23T03:50:09;96905.31;;;21.18;38.31
50057;BME280;36875;49.468;11.200;2024-03-23T03:52:34;96898.22;;;21.17;38.50
50057;BME280;36875;49.468;11.200;2024-03-23T03:55:02;96894.25;;;21.14;38.39
50057;BME280;36875;49.468;11.200;2024-03-23T03:57:27;96907.59;;;21.16;38.38
50057;BME280;36875;49.468;11.200;2024-03-23T03:59:53;96893.69;;;21.09;38.33
50057;BME280;36875;49.468;11.200;2024-03-23T04:02:19;96882.75;;;21.09;38.23
50057;BME280;36875;49.468;11.200;2024-03-23T04:04:44;96873.38;;;21.10;38.20
50057;BME280;36875;49.468;11.200;2024-03-23T04:07:11;96866.69;;;21.07;38.50
50057;BME280;36875;49.468;11.200;2024-03-23T04:09:36;96867.34;;;21.04;38.22
50057;BME280;36875;49.468;11.200;2024-03-23T04:12:02;96851.75;;;21.05;38.50
50057;BME280;36875;49.468;11.200;2024-03-23T04:14:28;96839.88;;;21.01;38.21
50057;BME280;36875;49.468;11.200;2024-03-23T04:16:53;96831.00;;;21.04;38.34
50057;BME280;36875;49.468;11.200;2024-03-23T04:19:18;96825.88;;;21.02;38.41
50057;BME280;36875;49.468;11.200;2024-03-23T04:21:44;96812.53;;;21.01;38.35
50057;BME280;36875;49.468;11.200;2024-03-23T04:24:11;96821.91;;;20.99;38.55
50057;BME280;36875;49.468;11.200;2024-03-23T04:26:40;96821.44;;;20.97;38.30
50057;BME280;36875;49.468;11.200;2024-03-23T04:29:06;96814.38;;;20.96;38.30
50057;BME280;36875;49.468;11.200;2024-03-23T04:31:32;96827.94;;;20.93;38.34
50057;BME280;36875;49.468;11.200;2024-03-23T04:33:59;96815.06;;;20.93;38.31
50057;BME280;36875;49.468;11.200;2024-03-23T04:36:25;96810.41;;;20.82;38.60
50057;BME280;36875;49.468;11.200;2024-03-23T04:38:50;96826.34;;;20.92;38.42
50057;BME280;36875;49.468;11.200;2024-03-23T04:41:19;96827.81;;;20.89;38.35
50057;BME280;36875;49.468;11.200;2024-03-23T04:43:44;96833.28;;;20.89;38.32
50057;BME280;36875;49.468;11.200;2024-03-23T04:46:10;96823.06;;;20.86;38.27
50057;BME280;36875;49.468;11.200;2024-03-23T04:48:35;96828.53;;;20.86;38.33
50057;BME280;36875;49.468;11.200;2024-03-23T04:51:01;96815.75;;;20.78;38.25
50057;BME280;36875;49.468;11.200;2024-03-23T04:53:27;96818.72;;;20.85;38.47
50057;BME280;36875;49.468;11.200;2024-03-23T04:55:56;96822.94;;;20.83;38.53
50057;BME280;36875;49.468;11.200;2024-03-23T04:58:23;96814.84;;;20.74;38.48
50057;BME280;36875;49.468;11.200;2024-03-23T05:00:53;96816.22;;;20.80;38.46
50057;BME280;36875;49.468;11.200;2024-03-23T05:03:18;96813.81;;;20.78;38.55
50057;BME280;36875;49.468;11.200;2024-03-23T05:05:46;96812.56;;;20.76;38.50
50057;BME280;36875;49.468;11.200;2024-03-23T05:08:11;96808.47;;;20.70;38.52
50057;BME280;36875;49.468;11.200;2024-03-23T05:10:38;96805.50;;;20.75;38.39
50057;BME280;36875;49.468;11.200;2024-03-23T05:13:03;96815.19;;;20.72;38.33
50057;BME280;36875;49.468;11.200;2024-03-23T05:15:30;96809.28;;;20.70;38.40
50057;BME280;36875;49.468;11.200;2024-03-23T05:17:56;96807.00;;;20.72;38.52
50057;BME280;36875;49.468;11.200;2024-03-23T05:20:21;96805.31;;;20.68;38.65
50057;BME280;36875;49.468;11.200;2024-03-23T05:22:46;96803.69;;;20.67;38.44
50057;BME280;36875;49.468;11.200;2024-03-23T05:25:12;96805.31;;;20.68;38.43
50057;BME280;36875;49.468;11.200;2024-03-23T05:27:38;96794.59;;;20.63;38.65
50057;BME280;36875;49.468;11.200;2024-03-23T05:30:05;96794.25;;;20.64;38.56
50057;BME280;36875;49.468;11.200;2024-03-23T05:32:33;96788.41;;;20.66;38.72
50057;BME280;36875;49.468;11.200;2024-03-23T05:34:58;96780.91;;;20.63;38.64
50057;BME280;36875;49.468;11.200;2024-03-23T05:37:23;96779.31;;;20.62;38.47
50057;BME280;36875;49.468;11.200;2024-03-23T05:39:49;96771.41;;;20.60;38.69
50057;BME280;36875;49.468;11.200;2024-03-23T05:42:15;96783.22;;;20.60;38.48
50057;BME280;36875;49.468;11.200;2024-03-23T05:44:41;96775.31;;;20.59;38.51
50057;BME280;36875;49.468;11.200;2024-03-23T05:47:07;96770.19;;;20.57;38.40
50057;BME280;36875;49.468;11.200;2024-03-23T05:49:34;96785.44;;;20.58;38.64
50057;BME280;36875;49.468;11.200;2024-03-23T05:52:00;96778.38;;;20.57;38.65
50057;BME280;36875;49.468;11.200;2024-03-23T05:54:27;96758.69;;;20.52;38.69
50057;BME280;36875;49.468;11.200;2024-03-23T05:56:54;96775.66;;;20.57;38.43
50057;BME280;36875;49.468;11.200;2024-03-23T05:59:20;96777.94;;;20.55;38.40
50057;BME280;36875;49.468;11.200;2024-03-23T06:01:46;96768.00;;;20.51;38.56
50057;BME280;36875;49.468;11.200;2024-03-23T06:04:11;96760.03;;;20.46;38.69
50057;BME280;36875;49.468;11.200;2024-03-23T06:06:39;96775.41;;;20.50;38.58
50057;BME280;36875;49.468;11.200;2024-03-23T06:09:04;96775.41;;;20.50;38.43
50057;BME280;36875;49.468;11.200;2024-03-23T06:11:30;96771.91;;;20.50;38.68
50057;BME280;36875;49.468;11.200;2024-03-23T06:13:55;96772.25;;;20.48;38.77
50057;BME280;36875;49.468;11.200;2024-03-23T06:16:21;96767.66;;;20.40;38.61
50057;BME280;36875;49.468;11.200;2024-03-23T06:18:49;96765.97;;;20.35;38.62
50057;BME280;36875;49.468;11.200;2024-03-23T06:21:15;96786.91;;;20.44;38.69
50057;BME280;36875;49.468;11.200;2024-03-23T06:23:42;96789.19;;;20.41;38.54
50057;BME280;36875;49.468;11.200;2024-03-23T06:26:08;96799.00;;;20.42;38.73
50057;BME280;36875;49.468;11.200;2024-03-23T06:28:34;96780.19;;;20.29;38.77
50057;BME280;36875;49.468;11.200;2024-03-23T06:30:59;96796.81;;;20.36;39.07
50057;BME280;36875;49.468;11.200;2024-03-23T06:33:25;96785.19;;;20.27;39.14
50057;BME280;36875;49.468;11.200;2024-03-23T06:35:50;96802.97;;;20.33;39.61
50057;BME280;36875;49.468;11.200;2024-03-23T06:38:17;96796.25;;;20.30;39.73
50057;BME280;36875;49.468;11.200;2024-03-23T06:40:44;96796.25;;;20.30;39.97
50057;BME280;36875;49.468;11.200;2024-03-23T06:43:12;96801.72;;;20.30;40.18
50057;BME280;36875;49.468;11.200;2024-03-23T06:45:38;96802.38;;;20.27;39.87
50057;BME280;36875;49.468;11.200;2024-03-23T06:48:04;96803.19;;;20.28;40.28
50057;BME280;36875;49.468;11.200;2024-03-23T06:50:33;96792.28;;;20.28;40.19
50057;BME280;36875;49.468;11.200;2024-03-23T06:52:58;96792.72;;;20.30;40.46
50057;BME280;36875;49.468;11.200;2024-03-23T06:55:24;96787.72;;;20.32;40.53
50057;BME280;36875;49.468;11.200;2024-03-23T06:57:51;96779.28;;;20.37;40.61
50057;BME280;36875;49.468;11.200;2024-03-23T07:00:17;96769.03;;;20.34;40.74
50057;BME280;36875;49.468;11.200;2024-03-23T07:02:43;96779.63;;;20.35;40.67
50057;BME280;36875;49.468;11.200;2024-03-23T07:05:09;96781.31;;;20.40;41.22
50057;BME280;36875;49.468;11.200;2024-03-23T07:07:35;96799.66;;;20.39;41.08
50057;BME280;36875;49.468;11.200;2024-03-23T07:10:00;96799.56;;;20.48;40.70
50057;BME280;36875;49.468;11.200;2024-03-23T07:12:26;96793.53;;;20.55;41.27
50057;BME280;36875;49.468;11.200;2024-03-23T07:14:52;96808.66;;;20.52;41.04
50057;BME280;36875;49.468;11.200;2024-03-23T07:17:18;96800.91;;;20.54;41.26
50057;BME280;36875;49.468;11.200;2024-03-23T07:19:43;96802.78;;;20.63;41.29
50057;BME280;36875;49.468;11.200;2024-03-23T07:22:09;96808.13;;;20.59;41.32
50057;BME280;36875;49.468;11.200;2024-03-23T07:24:35;96816.66;;;20.57;41.48
50057;BME280;36875;49.468;11.200;2024-03-23T07:27:01;96826.94;;;20.60;41.57
50057;BME280;36875;49.468;11.200;2024-03-23T07:29:27;96813.91;;;20.57;41.38
50057;BME280;36875;49.468;11.200;2024-03-23T07:31:54;96810.16;;;20.62;41.35
50057;BME280;36875;49.468;11.200;2024-03-23T07:34:20;96812.34;;;20.69;41.42
50057;BME280;36875;49.468;11.200;2024-03-23T07:36:45;96818.25;;;20.71;41.85
50057;BME280;36875;49.468;11.200;2024-03-23T07:39:11;96817.13;;;20.72;41.75
50057;BME280;36875;49.468;11.200;2024-03-23T07:41:36;96818.72;;;20.85;41.39
50057;BME280;36875;49.468;11.200;2024-03-23T07:44:02;96808.34;;;21.03;40.94
50057;BME280;36875;49.468;11.200;2024-03-23T07:46:27;96831.09;;;21.20;40.72
50057;BME280;36875;49.468;11.200;2024-03-23T07:48:54;96834.00;;;21.39;40.28
50057;BME280;36875;49.468;11.200;2024-03-23T07:51:21;96835.00;;;21.59;40.07
50057;BME280;36875;49.468;11.200;2024-03-23T07:53:47;96845.59;;;21.89;39.41
50057;BME280;36875;49.468;11.200;2024-03-23T07:56:14;96854.06;;;22.12;39.01
50057;BME280;36875;49.468;11.200;2024-03-23T07:58:47;96855.19;;;22.39;38.65
50057;BME280;36875;49.468;11.200;2024-03-23T08:01:14;96856.88;;;22.60;38.04
50057;BME280;36875;49.468;11.200;2024-03-23T08:03:41;96856.00;;;22.56;38.04
50057;BME280;36875;49.468;11.200;2024-03-23T08:06:09;96848.84;;;22.67;38.04
50057;BME280;36875;49.468;11.200;2024-03-23T08:08:35;96856.72;;;22.68;37.86
50057;BME280;36875;49.468;11.200;2024-03-23T08:11:01;96851.66;;;22.70;38.20
50057;BME280;36875;49.468;11.200;2024-03-23T08:13:26;96855.19;;;22.55;38.22
50057;BME280;36875;49.468;11.200;2024-03-23T08:15:52;96840.16;;;22.65;38.19
50057;BME280;36875;49.468;11.200;2024-03-23T08:18:21;96854.84;;;22.73;38.10
50057;BME280;36875;49.468;11.200;2024-03-23T08:20:47;96861.28;;;23.12;37.29
50057;BME280;36875;49.468;11.200;2024-03-23T08:23:13;96866.84;;;23.51;36.12
50057;BME280;36875;49.468;11.200;2024-03-23T08:25:39;96892.75;;;23.89;35.83
50057;BME280;36875;49.468;11.200;2024-03-23T08:28:05;96914.19;;;24.19;35.38
50057;BME280;36875;49.468;11.200;2024-03-23T08:30:30;96938.53;;;24.20;35.22
50057;BME280;36875;49.468;11.200;2024-03-23T08:32:56;96967.13;;;24.55;34.52
50057;BME280;36875;49.468;11.200;2024-03-23T08:35:22;96976.44;;;24.50;34.38
50057;BME280;36875;49.468;11.200;2024-03-23T08:37:47;96979.56;;;24.49;34.33
50057;BME280;36875;49.468;11.200;2024-03-23T08:40:14;96990.97;;;24.70;34.43
50057;BME280;36875;49.468;11.200;2024-03-23T08:42:40;96984.97;;;24.65;34.64
50057;BME280;36875;49.468;11.200;2024-03-23T08:45:06;96998.81;;;24.68;34.47
50057;BME280;36875;49.468;11.200;2024-03-23T08:47:34;97010.63;;;24.92;33.28
50057;BME280;36875;49.468;11.200;2024-03-23T08:50:00;97021.50;;;24.85;32.88
50057;BME280;36875;49.468;11.200;2024-03-23T08:52:25;97022.81;;;25.14;32.83
50057;BME280;36875;49.468;11.200;2024-03-23T08:54:54;97020.41;;;25.32;33.00
50057;BME280;36875;49.468;11.200;2024-03-23T08:57:22;97039.81;;;25.66;32.57
50057;BME280;36875;49.468;11.200;2024-03-23T08:59:48;97043.75;;;25.65;33.17
50057;BME280;36875;49.468;11.200;2024-03-23T09:02:13;97046.25;;;25.73;32.97
50057;BME280;36875;49.468;11.200;2024-03-23T09:04:39;97047.91;;;25.78;32.53
50057;BME280;36875;49.468;11.200;2024-03-23T09:07:04;97047.94;;;25.82;32.40
50057;BME280;36875;49.468;11.200;2024-03-23T09:09:30;97074.31;;;25.79;32.87
50057;BME280;36875;49.468;11.200;2024-03-23T09:11:55;97081.28;;;25.73;33.13
50057;BME280;36875;49.468;11.200;2024-03-23T09:14:23;97081.28;;;25.73;33.59
50057;BME280;36875;49.468;11.200;2024-03-23T09:16:49;97090.63;;;25.91;32.74
50057;BME280;36875;49.468;11.200;2024-03-23T09:19:16;97115.00;;;25.89;33.38
50057;BME280;36875;49.468;11.200;2024-03-23T09:21:42;97123.16;;;25.82;33.09
50057;BME280;36875;49.468;11.200;2024-03-23T09:24:07;97132.34;;;25.90;33.30
50057;BME280;36875;49.468;11.200;2024-03-23T09:26:33;97096.66;;;25.51;33.76
50057;BME280;36875;49.468;11.200;2024-03-23T09:28:58;97127.38;;;25.76;33.69
50057;BME280;36875;49.468;11.200;2024-03-23T09:31:25;97146.97;;;25.71;33.21
50057;BME280;36875;49.468;11.200;2024-03-23T09:33:50;97134.44;;;25.73;32.99
50057;BME280;36875;49.468;11.200;2024-03-23T09:36:16;97126.28;;;25.57;33.75
50057;BME280;36875;49.468;11.200;2024-03-23T09:38:41;97120.06;;;25.61;33.65
50057;BME280;36875;49.468;11.200;2024-03-23T09:41:08;97116.13;;;25.62;33.39
50057;BME280;36875;49.468;11.200;2024-03-23T09:43:33;97128.78;;;25.43;33.94
50057;BME280;36875;49.468;11.200;2024-03-23T09:45:59;97152.00;;;25.42;33.87
50057;BME280;36875;49.468;11.200;2024-03-23T09:48:26;97154.31;;;25.40;33.53
50057;BME280;36875;49.468;11.200;2024-03-23T09:50:52;97163.53;;;25.28;33.61
50057;BME280;36875;49.468;11.200;2024-03-23T09:53:17;97177.38;;;25.32;33.45
50057;BME280;36875;49.468;11.200;2024-03-23T09:55:44;97162.88;;;25.35;33.15
50057;BME280;36875;49.468;11.200;2024-03-23T09:58:12;97156.44;;;25.27;32.34
50057;BME280;36875;49.468;11.200;2024-03-23T10:00:38;97154.56;;;25.31;31.74
50057;BME280;36875;49.468;11.200;2024-03-23T10:03:04;97155.78;;;25.34;31.63
50057;BME280;36875;49.468;11.200;2024-03-23T10:05:33;97163.66;;;25.55;31.71
50057;BME280;36875;49.468;11.200;2024-03-23T10:08:17;97177.50;;;25.58;31.97
50057;BME280;36875;49.468;11.200;2024-03-23T10:10:44;97176.69;;;25.58;31.66
50057;BME280;36875;49.468;11.200;2024-03-23T10:13:09;97181.47;;;25.61;31.97
50057;BME280;36875;49.468;11.200;2024-03-23T10:15:36;97176.31;;;25.59;31.54
50057;BME280;36875;49.468;11.200;2024-03-23T10:18:17;97176.88;;;25.69;32.18
50057;BME280;36875;49.468;11.200;2024-03-23T10:20:47;97192.41;;;25.57;32.40
50057;BME280;36875;49.468;11.200;2024-03-23T10:23:15;97195.16;;;25.57;31.82
50057;BME280;36875;49.468;11.200;2024-03-23T10:25:41;97193.13;;;25.54;32.11
50057;BME280;36875;49.468;11.200;2024-03-23T10:28:06;97196.38;;;25.60;32.32
50057;BME280;36875;49.468;11.200;2024-03-23T10:30:32;97210.66;;;25.66;32.08
50057;BME280;36875;49.468;11.200;2024-03-23T10:33:07;97207.28;;;25.53;32.70
50057;BME280;36875;49.468;11.200;2024-03-23T10:35:32;97223.00;;;25.52;32.51
50057;BME280;36875;49.468;11.200;2024-03-23T10:37:59;97229.13;;;25.42;32.89
50057;BME280;36875;49.468;11.200;2024-03-23T10:40:25;97249.34;;;25.30;32.95
50057;BME280;36875;49.468;11.200;2024-03-23T10:42:52;97249.00;;;25.32;32.83
50057;BME280;36875;49.468;11.200;2024-03-23T10:45:20;97260.47;;;25.18;33.08
50057;BME280;36875;49.468;11.200;2024-03-23T10:47:46;97241.94;;;25.15;32.95
50057;BME280;36875;49.468;11.200;2024-03-23T10:50:12;97241.06;;;25.11;33.65
50057;BME280;36875;49.468;11.200;2024-03-23T10:52:38;97217.88;;;25.12;33.15
50057;BME280;36875;49.468;11.200;2024-03-23T10:55:06;97208.66;;;25.04;33.36
50057;BME280;36875;49.468;11.200;2024-03-23T10:57:37;97245.69;;;25.07;33.76
50057;BME280;36875;49.468;11.200;2024-03-23T11:00:06;97254.16;;;24.98;33.67
50057;BME280;36875;49.468;11.200;2024-03-23T11:02:32;97275.88;;;25.03;33.64
50057;BME280;36875;49.468;11.200;2024-03-23T11:04:57;97256.75;;;24.91;34.11
50057;BME280;36875;49.468;11.200;2024-03-23T11:07:30;97254.56;;;24.80;34.31
50057;BME280;36875;49.468;11.200;2024-03-23T11:09:56;97239.22;;;24.79;34.29
50057;BME280;36875;49.468;11.200;2024-03-23T11:12:28;97226.56;;;24.59;34.83
50057;BME280;36875;49.468;11.200;2024-03-23T11:14:57;97224.25;;;24.61;34.96
50057;BME280;36875;49.468;11.200;2024-03-23T11:17:25;97229.38;;;24.62;34.34
50057;BME280;36875;49.468;11.200;2024-03-23T11:19:54;97235.00;;;24.50;34.96
50057;BME280;36875;49.468;11.200;2024-03-23T11:22:42;97222.28;;;24.46;34.88
50057;BME280;36875;49.468;11.200;2024-03-23T11:25:17;97222.94;;;24.55;35.14
50057;BME280;36875;49.468;11.200;2024-03-23T11:27:45;97207.94;;;24.36;35.28
50057;BME280;36875;49.468;11.200;2024-03-23T11:30:16;97220.63;;;24.57;35.22
50057;BME280;36875;49.468;11.200;2024-03-23T11:32:42;97220.41;;;24.66;34.59
50057;BME280;36875;49.468;11.200;2024-03-23T11:35:08;97212.59;;;24.68;34.87
50057;BME280;36875;49.468;11.200;2024-03-23T11:37:36;97212.69;;;24.71;34.92
50057;BME280;36875;49.468;11.200;2024-03-23T11:40:16;97227.59;;;24.70;34.58
50057;BME280;36875;49.468;11.200;2024-03-23T11:42:42;97234.88;;;24.62;35.19
50057;BME280;36875;49.468;11.200;2024-03-23T11:45:10;97242.09;;;24.67;34.88
50057;BME280;36875;49.468;11.200;2024-03-23T11:47:35;97240.75;;;24.61;35.09
50057;BME280;36875;49.468;11.200;2024-03-23T11:50:01;97256.19;;;24.66;35.25
50057;BME280;36875;49.468;11.200;2024-03-23T11:52:26;97261.97;;;24.60;35.08
50057;BME280;36875;49.468;11.200;2024-03-23T11:55:03;97262.31;;;24.59;35.16
50057;BME280;36875;49.468;11.200;2024-03-23T11:57:29;97262.13;;;24.68;35.10
50057;BME280;36875;49.468;11.200;2024-03-23T11:59:55;97248.03;;;24.69;34.92
50057;BME280;36875;49.468;11.200;2024-03-23T12:02:22;97261.25;;;24.63;35.13
50057;BME280;36875;49.468;11.200;2024-03-23T12:04:47;97253.19;;;24.55;35.05
50057;BME280;36875;49.468;11.200;2024-03-23T12:07:14;97253.84;;;24.52;35.17
50057;BME280;36875;49.468;11.200;2024-03-23T12:09:40;97265.22;;;24.66;35.18
50057;BME280;36875;49.468;11.200;2024-03-23T12:12:10;97255.41;;;24.65;35.25
50057;BME280;36875;49.468;11.200;2024-03-23T12:14:36;97261.06;;;24.72;34.81
50057;BME280;36875;49.468;11.200;2024-03-23T12:17:11;97258.84;;;24.62;35.11
50057;BME280;36875;49.468;11.200;2024-03-23T12:19:39;97254.22;;;24.66;35.11
50057;BME280;36875;49.468;11.200;2024-03-23T12:22:06;97257.66;;;24.79;34.99
50057;BME280;36875;49.468;11.200;2024-03-23T12:24:32;97246.72;;;24.82;34.93
50057;BME280;36875;49.468;11.200;2024-03-23T12:27:00;97241.66;;;24.85;34.66
50057;BME280;36875;49.468;11.200;2024-03-23T12:29:27;97240.97;;;24.88;34.44
50057;BME280;36875;49.468;11.200;2024-03-23T12:31:52;97240.53;;;24.86;34.24
50057;BME280;36875;49.468;11.200;2024-03-23T12:34:18;97240.16;;;24.87;34.69
50057;BME280;36875;49.468;11.200;2024-03-23T12:36:45;97238.59;;;24.70;34.50
50057;BME280;36875;49.468;11.200;2024-03-23T12:39:10;97239.72;;;24.85;34.06
50057;BME280;36875;49.468;11.200;2024-03-23T12:41:36;97228.84;;;24.92;33.33
50057;BME280;36875;49.468;11.200;2024-03-23T12:44:01;97232.16;;;24.98;33.80
50057;BME280;36875;49.468;11.200;2024-03-23T12:46:27;97233.41;;;24.85;34.03
50057;BME280;36875;49.468;11.200;2024-03-23T12:48:52;97225.47;;;24.79;33.98
50057;BME280;36875;49.468;11.200;2024-03-23T12:51:18;97214.44;;;24.79;34.12
50057;BME280;36875;49.468;11.200;2024-03-23T12:53:45;97209.84;;;24.68;34.24
50057;BME280;36875;49.468;11.200;2024-03-23T12:56:11;97214.44;;;24.79;33.95
50057;BME280;36875;49.468;11.200;2024-03-23T12:58:37;97214.06;;;24.61;34.17
50057;BME280;36875;49.468;11.200;2024-03-23T13:01:06;97214.84;;;24.62;34.02
50057;BME280;36875;49.468;11.200;2024-03-23T13:03:31;97214.91;;;24.50;34.00
50057;BME280;36875;49.468;11.200;2024-03-23T13:05:57;97215.03;;;24.37;33.15
50057;BME280;36875;49.468;11.200;2024-03-23T13:08:22;97216.28;;;24.56;32.75
50057;BME280;36875;49.468;11.200;2024-03-23T13:10:52;97218.91;;;24.68;32.96
50057;BME280;36875;49.468;11.200;2024-03-23T13:13:18;97222.56;;;24.92;32.27
50057;BME280;36875;49.468;11.200;2024-03-23T13:15:49;97217.63;;;24.81;32.58
50057;BME280;36875;49.468;11.200;2024-03-23T13:18:15;97218.94;;;24.88;32.96
50057;BME280;36875;49.468;11.200;2024-03-23T13:20:40;97215.84;;;24.89;32.51
50057;BME280;36875;49.468;11.200;2024-03-23T13:23:06;97235.34;;;25.00;32.80
50057;BME280;36875;49.468;11.200;2024-03-23T13:25:31;97221.84;;;25.14;32.17
50057;BME280;36875;49.468;11.200;2024-03-23T13:27:58;97219.59;;;25.00;32.48
50057;BME280;36875;49.468;11.200;2024-03-23T13:30:23;97221.84;;;25.14;32.38
50057;BME280;36875;49.468;11.200;2024-03-23T13:32:49;97208.97;;;25.18;32.47
50057;BME280;36875;49.468;11.200;2024-03-23T13:35:15;97214.53;;;25.22;32.40
50057;BME280;36875;49.468;11.200;2024-03-23T13:37:41;97224.56;;;25.30;31.92